sensor_id;sensor_type;location;lat;lon;timestamp;temperature;humidity
7248;DHT22;3665;51.034;13.642;2022-10-16T00:06:45;12.40;99.90
7248;DHT22;3665;51.034;13.642;2022-10-16T00:12:35;12.20;99.90
7248;DHT22;3665;51.034;13.642;2022-10-16T00:17:39;12.00;99.90
7248;DHT22;3665;51.034;13.642;2022-10-16T00:23:30;12.00;99.90
7248;DHT22;3665;51.034;13.642;2022-10-16T00:28:35;12.00;99.90
7248;DHT22;3665;51.034;13.642;2022-10-16T00:34:56;11.80;99.90
7248;DHT22;3665;51.034;13.642;2022-10-16T00:41:02;11.80;99.90
7248;DHT22;3665;51.034;13.642;2022-10-16T00:45:50;11.80;99.90
7248;DHT22;3665;51.034;13.642;2022-10-16T00:51:14;11.60;99.90
7248;DHT22;3665;51.034;13.642;2022-10-16T00:57:05;11.60;99.90
7248;DHT22;3665;51.034;13.642;2022-10-16T01:02:57;11.50;99.90
7248;DHT22;3665;51.034;13.642;2022-10-16T01:08:07;11.50;99.90
7248;DHT22;3665;51.034;13.642;2022-10-16T01:13:50;11.50;99.90
7248;DHT22;3665;51.034;13.642;2022-10-16T01:19:00;11.50;99.90
7248;DHT22;3665;51.034;13.642;2022-10-16T01:24:03;11.70;99.90
7248;DHT22;3665;51.034;13.642;2022-10-16T01:29:07;11.80;99.90
7248;DHT22;3665;51.034;13.642;2022-10-16T01:34:09;12.00;99.90
7248;DHT22;3665;51.034;13.642;2022-10-16T01:39:28;12.00;99.90
7248;DHT22;3665;51.034;13.642;2022-10-16T01:44:47;12.40;99.90
7248;DHT22;3665;51.034;13.642;2022-10-16T01:49:38;12.80;99.90
7248;DHT22;3665;51.034;13.642;2022-10-16T01:54:46;13.00;99.90
7248;DHT22;3665;51.034;13.642;2022-10-16T01:59:46;13.20;99.90
7248;DHT22;3665;51.034;13.642;2022-10-16T02:04:34;13.20;99.90
7248;DHT22;3665;51.034;13.642;2022-10-16T02:09:34;13.50;99.90
7248;DHT22;3665;51.034;13.642;2022-10-16T02:14:21;13.50;99.90
7248;DHT22;3665;51.034;13.642;2022-10-16T02:19:24;13.50;99.90
7248;DHT22;3665;51.034;13.642;2022-10-16T02:24:36;13.50;99.90
7248;DHT22;3665;51.034;13.642;2022-10-16T02:29:50;13.50;99.90
7248;DHT22;3665;51.034;13.642;2022-10-16T02:35:12;13.50;99.90
7248;DHT22;3665;51.034;13.642;2022-10-16T02:40:14;13.60;99.90
7248;DHT22;3665;51.034;13.642;2022-10-16T02:45:36;13.60;99.90
7248;DHT22;3665;51.034;13.642;2022-10-16T02:50:36;13.70;99.90
7248;DHT22;3665;51.034;13.642;2022-10-16T02:55:44;13.80;99.90
7248;DHT22;3665;51.034;13.642;2022-10-16T03:00:29;13.80;99.90
7248;DHT22;3665;51.034;13.642;2022-10-16T03:05:16;13.70;99.90
7248;DHT22;3665;51.034;13.642;2022-10-16T03:10:37;13.50;99.90
7248;DHT22;3665;51.034;13.642;2022-10-16T03:15:45;13.30;99.90
7248;DHT22;3665;51.034;13.642;2022-10-16T03:20:45;13.20;99.90
7248;DHT22;3665;51.034;13.642;2022-10-16T03:25:34;13.00;99.90
7248;DHT22;3665;51.034;13.642;2022-10-16T03:30:20;12.90;99.90
7248;DHT22;3665;51.034;13.642;2022-10-16T03:35:31;12.90;99.90
7248;DHT22;3665;51.034;13.642;2022-10-16T03:40:51;12.80;99.90
7248;DHT22;3665;51.034;13.642;2022-10-16T03:46:13;12.80;99.90
7248;DHT22;3665;51.034;13.642;2022-10-16T03:51:50;12.70;99.90
7248;DHT22;3665;51.034;13.642;2022-10-16T03:57:09;12.70;99.90
7248;DHT22;3665;51.034;13.642;2022-10-16T04:02:54;12.60;99.90
7248;DHT22;3665;51.034;13.642;2022-10-16T04:07:43;12.60;99.90
7248;DHT22;3665;51.034;13.642;2022-10-16T04:12:30;12.60;99.90
7248;DHT22;3665;51.034;13.642;2022-10-16T04:17:17;12.80;99.90
7248;DHT22;3665;51.034;13.642;2022-10-16T04:22:06;12.90;99.90
7248;DHT22;3665;51.034;13.642;2022-10-16T04:26:55;13.10;99.90
7248;DHT22;3665;51.034;13.642;2022-10-16T04:31:45;13.20;99.90
7248;DHT22;3665;51.034;13.642;2022-10-16T04:36:30;13.30;99.90
7248;DHT22;3665;51.034;13.642;2022-10-16T04:41:17;13.30;99.90
7248;DHT22;3665;51.034;13.642;2022-10-16T04:46:38;13.40;99.90
7248;DHT22;3665;51.034;13.642;2022-10-16T04:52:00;13.40;99.90
7248;DHT22;3665;51.034;13.642;2022-10-16T04:57:40;13.40;99.90
7248;DHT22;3665;51.034;13.642;2022-10-16T05:02:42;13.30;99.90
7248;DHT22;3665;51.034;13.642;2022-10-16T05:07:25;13.30;99.90
7248;DHT22;3665;51.034;13.642;2022-10-16T05:12:13;13.20;99.90
7248;DHT22;3665;51.034;13.642;2022-10-16T05:17:00;13.20;99.90
7248;DHT22;3665;51.034;13.642;2022-10-16T05:21:55;13.10;99.90
7248;DHT22;3665;51.034;13.642;2022-10-16T05:26:43;12.90;99.90
7248;DHT22;3665;51.034;13.642;2022-10-16T05:31:59;12.80;99.90
7248;DHT22;3665;51.034;13.642;2022-10-16T05:37:24;13.00;99.90
7248;DHT22;3665;51.034;13.642;2022-10-16T05:42:25;12.80;99.90
7248;DHT22;3665;51.034;13.642;2022-10-16T05:47:24;12.80;99.90
7248;DHT22;3665;51.034;13.642;2022-10-16T05:52:12;12.80;99.90
7248;DHT22;3665;51.034;13.642;2022-10-16T06:02:44;12.90;99.90
7248;DHT22;3665;51.034;13.642;2022-10-16T06:08:01;13.00;99.90
7248;DHT22;3665;51.034;13.642;2022-10-16T06:13:38;13.10;99.90
7248;DHT22;3665;51.034;13.642;2022-10-16T06:19:12;13.30;99.90
7248;DHT22;3665;51.034;13.642;2022-10-16T06:36:31;14.00;99.90
7248;DHT22;3665;51.034;13.642;2022-10-16T06:41:38;14.30;99.90
7248;DHT22;3665;51.034;13.642;2022-10-16T06:46:53;14.50;99.90
7248;DHT22;3665;51.034;13.642;2022-10-16T06:52:04;14.90;99.90
7248;DHT22;3665;51.034;13.642;2022-10-16T06:57:41;15.10;99.90
7248;DHT22;3665;51.034;13.642;2022-10-16T07:03:24;15.30;99.90
7248;DHT22;3665;51.034;13.642;2022-10-16T07:08:35;15.40;99.90
7248;DHT22;3665;51.034;13.642;2022-10-16T07:13:41;15.60;99.90
7248;DHT22;3665;51.034;13.642;2022-10-16T07:19:15;15.80;99.90
7248;DHT22;3665;51.034;13.642;2022-10-16T07:25:06;16.00;99.90
7248;DHT22;3665;51.034;13.642;2022-10-16T07:30:06;16.10;99.90
7248;DHT22;3665;51.034;13.642;2022-10-16T07:36:08;16.10;99.90
7248;DHT22;3665;51.034;13.642;2022-10-16T07:41:22;16.10;99.90
7248;DHT22;3665;51.034;13.642;2022-10-16T07:46:52;16.30;99.90
7248;DHT22;3665;51.034;13.642;2022-10-16T07:57:50;16.70;99.90
7248;DHT22;3665;51.034;13.642;2022-10-16T08:02:46;17.20;99.90
7248;DHT22;3665;51.034;13.642;2022-10-16T08:13:25;17.60;1.00
7248;DHT22;3665;51.034;13.642;2022-10-16T08:18:55;17.60;99.90
7248;DHT22;3665;51.034;13.642;2022-10-16T08:24:29;17.50;99.90
7248;DHT22;3665;51.034;13.642;2022-10-16T08:35:49;17.90;99.90
7248;DHT22;3665;51.034;13.642;2022-10-16T08:48:09;18.60;99.90
7248;DHT22;3665;51.034;13.642;2022-10-16T08:53:22;18.90;99.90
7248;DHT22;3665;51.034;13.642;2022-10-16T08:58:53;19.10;90.80
7248;DHT22;3665;51.034;13.642;2022-10-16T09:04:45;19.60;77.10
7248;DHT22;3665;51.034;13.642;2022-10-16T09:10:14;19.70;74.50
7248;DHT22;3665;51.034;13.642;2022-10-16T09:15:47;19.80;71.80
7248;DHT22;3665;51.034;13.642;2022-10-16T09:22:04;20.20;63.90
7248;DHT22;3665;51.034;13.642;2022-10-16T09:28:44;20.80;52.10
7248;DHT22;3665;51.034;13.642;2022-10-16T09:33:54;20.80;45.40
7248;DHT22;3665;51.034;13.642;2022-10-16T09:38:43;20.40;49.70
7248;DHT22;3665;51.034;13.642;2022-10-16T09:44:00;20.70;50.50
7248;DHT22;3665;51.034;13.642;2022-10-16T09:49:22;20.90;61.40
7248;DHT22;3665;51.034;13.642;2022-10-16T09:54:57;20.60;46.60
7248;DHT22;3665;51.034;13.642;2022-10-16T10:00:49;20.60;45.50
7248;DHT22;3665;51.034;13.642;2022-10-16T10:06:43;21.00;45.40
7248;DHT22;3665;51.034;13.642;2022-10-16T10:12:20;20.90;45.70
7248;DHT22;3665;51.034;13.642;2022-10-16T10:17:52;20.70;44.90
7248;DHT22;3665;51.034;13.642;2022-10-16T10:22:57;20.40;46.50
7248;DHT22;3665;51.034;13.642;2022-10-16T10:33:39;20.60;50.00
7248;DHT22;3665;51.034;13.642;2022-10-16T10:38:42;20.80;46.90
7248;DHT22;3665;51.034;13.642;2022-10-16T10:43:59;20.90;43.70
7248;DHT22;3665;51.034;13.642;2022-10-16T10:55:31;21.40;46.70
7248;DHT22;3665;51.034;13.642;2022-10-16T11:00:44;22.10;41.30
7248;DHT22;3665;51.034;13.642;2022-10-16T11:05:48;22.00;31.00
7248;DHT22;3665;51.034;13.642;2022-10-16T11:11:02;21.50;31.60
7248;DHT22;3665;51.034;13.642;2022-10-16T11:22:06;20.80;33.90
7248;DHT22;3665;51.034;13.642;2022-10-16T11:27:31;21.10;36.00
7248;DHT22;3665;51.034;13.642;2022-10-16T11:37:51;21.00;39.70
7248;DHT22;3665;51.034;13.642;2022-10-16T11:42:57;21.10;38.00
7248;DHT22;3665;51.034;13.642;2022-10-16T11:47:45;21.20;35.60
7248;DHT22;3665;51.034;13.642;2022-10-16T11:52:52;21.10;36.00
7248;DHT22;3665;51.034;13.642;2022-10-16T11:58:07;21.20;38.20
7248;DHT22;3665;51.034;13.642;2022-10-16T12:03:18;21.30;35.60
7248;DHT22;3665;51.034;13.642;2022-10-16T12:08:14;21.50;37.50
7248;DHT22;3665;51.034;13.642;2022-10-16T12:13:04;21.70;35.60
7248;DHT22;3665;51.034;13.642;2022-10-16T12:17:54;21.70;32.90
7248;DHT22;3665;51.034;13.642;2022-10-16T12:23:27;21.70;32.10
7248;DHT22;3665;51.034;13.642;2022-10-16T12:28:30;21.80;32.70
7248;DHT22;3665;51.034;13.642;2022-10-16T12:33:41;21.60;31.20
7248;DHT22;3665;51.034;13.642;2022-10-16T12:44:35;21.80;33.50
7248;DHT22;3665;51.034;13.642;2022-10-16T12:49:52;22.00;48.80
7248;DHT22;3665;51.034;13.642;2022-10-16T13:01:36;22.60;29.70
7248;DHT22;3665;51.034;13.642;2022-10-16T13:06:53;22.80;28.10
7248;DHT22;3665;51.034;13.642;2022-10-16T13:23:50;22.30;25.60
7248;DHT22;3665;51.034;13.642;2022-10-16T13:29:03;21.90;26.70
7248;DHT22;3665;51.034;13.642;2022-10-16T13:34:27;21.60;30.70
7248;DHT22;3665;51.034;13.642;2022-10-16T13:45:23;21.20;33.30
7248;DHT22;3665;51.034;13.642;2022-10-16T13:50:44;21.20;42.70
7248;DHT22;3665;51.034;13.642;2022-10-16T13:56:47;21.60;44.10
7248;DHT22;3665;51.034;13.642;2022-10-16T14:02:25;21.40;46.10
7248;DHT22;3665;51.034;13.642;2022-10-16T14:07:50;21.50;40.80
7248;DHT22;3665;51.034;13.642;2022-10-16T14:24:33;21.00;47.10
7248;DHT22;3665;51.034;13.642;2022-10-16T14:29:24;20.80;46.50
7248;DHT22;3665;51.034;13.642;2022-10-16T14:34:42;20.70;45.20
7248;DHT22;3665;51.034;13.642;2022-10-16T14:40:19;20.70;45.80
7248;DHT22;3665;51.034;13.642;2022-10-16T14:45:40;20.60;48.10
7248;DHT22;3665;51.034;13.642;2022-10-16T14:50:46;20.40;51.00
7248;DHT22;3665;51.034;13.642;2022-10-16T14:56:30;20.30;51.20
7248;DHT22;3665;51.034;13.642;2022-10-16T15:01:33;20.30;54.40
7248;DHT22;3665;51.034;13.642;2022-10-16T15:06:59;20.20;53.60
7248;DHT22;3665;51.034;13.642;2022-10-16T15:12:43;20.10;57.00
7248;DHT22;3665;51.034;13.642;2022-10-16T15:17:36;20.20;50.00
7248;DHT22;3665;51.034;13.642;2022-10-16T15:22:43;20.10;56.10
7248;DHT22;3665;51.034;13.642;2022-10-16T15:27:53;20.00;49.80
7248;DHT22;3665;51.034;13.642;2022-10-16T15:33:01;19.80;53.30
7248;DHT22;3665;51.034;13.642;2022-10-16T15:43:24;19.10;92.40
7248;DHT22;3665;51.034;13.642;2022-10-16T15:53:40;18.20;99.90
7248;DHT22;3665;51.034;13.642;2022-10-16T15:58:45;17.90;99.90
7248;DHT22;3665;51.034;13.642;2022-10-16T16:04:05;17.60;99.90
7248;DHT22;3665;51.034;13.642;2022-10-16T16:09:49;17.30;99.90
7248;DHT22;3665;51.034;13.642;2022-10-16T16:15:25;17.00;99.90
7248;DHT22;3665;51.034;13.642;2022-10-16T16:20:15;16.80;99.90
7248;DHT22;3665;51.034;13.642;2022-10-16T16:26:09;16.60;99.90
7248;DHT22;3665;51.034;13.642;2022-10-16T16:31:10;16.20;99.90
7248;DHT22;3665;51.034;13.642;2022-10-16T16:42:06;15.60;1.00
7248;DHT22;3665;51.034;13.642;2022-10-16T16:52:44;15.10;99.90
7248;DHT22;3665;51.034;13.642;2022-10-16T16:57:39;14.90;1.00
7248;DHT22;3665;51.034;13.642;2022-10-16T17:02:22;14.70;1.00
7248;DHT22;3665;51.034;13.642;2022-10-16T17:07:30;14.60;1.00
7248;DHT22;3665;51.034;13.642;2022-10-16T17:12:29;14.40;99.90
7248;DHT22;3665;51.034;13.642;2022-10-16T17:17:23;14.30;4.40
7248;DHT22;3665;51.034;13.642;2022-10-16T17:22:20;14.20;99.90
7248;DHT22;3665;51.034;13.642;2022-10-16T17:27:09;14.10;99.90
7248;DHT22;3665;51.034;13.642;2022-10-16T17:31:58;13.90;1.00
7248;DHT22;3665;51.034;13.642;2022-10-16T17:36:46;13.90;99.90
7248;DHT22;3665;51.034;13.642;2022-10-16T17:41:33;13.80;99.90
7248;DHT22;3665;51.034;13.642;2022-10-16T17:46:22;13.90;99.90
7248;DHT22;3665;51.034;13.642;2022-10-16T17:51:12;14.20;99.90
7248;DHT22;3665;51.034;13.642;2022-10-16T17:56:30;14.30;99.90
7248;DHT22;3665;51.034;13.642;2022-10-16T18:01:20;14.40;99.90
7248;DHT22;3665;51.034;13.642;2022-10-16T18:06:04;14.50;99.90
7248;DHT22;3665;51.034;13.642;2022-10-16T18:10:58;14.50;99.90
7248;DHT22;3665;51.034;13.642;2022-10-16T18:15:46;14.60;99.90
7248;DHT22;3665;51.034;13.642;2022-10-16T18:20:29;14.60;99.90
7248;DHT22;3665;51.034;13.642;2022-10-16T18:25:16;14.50;99.90
7248;DHT22;3665;51.034;13.642;2022-10-16T18:30:09;14.50;99.90
7248;DHT22;3665;51.034;13.642;2022-10-16T18:35:11;14.50;99.90
7248;DHT22;3665;51.034;13.642;2022-10-16T18:39:58;14.30;99.90
7248;DHT22;3665;51.034;13.642;2022-10-16T18:44:44;14.20;99.90
7248;DHT22;3665;51.034;13.642;2022-10-16T18:49:35;14.00;99.90
7248;DHT22;3665;51.034;13.642;2022-10-16T18:54:23;13.90;99.90
7248;DHT22;3665;51.034;13.642;2022-10-16T18:59:09;13.90;99.90
7248;DHT22;3665;51.034;13.642;2022-10-16T19:04:02;14.00;99.90
7248;DHT22;3665;51.034;13.642;2022-10-16T19:08:47;14.10;99.90
7248;DHT22;3665;51.034;13.642;2022-10-16T19:13:35;14.30;99.90
7248;DHT22;3665;51.034;13.642;2022-10-16T19:18:20;14.50;99.90
7248;DHT22;3665;51.034;13.642;2022-10-16T19:23:11;14.70;99.90
7248;DHT22;3665;51.034;13.642;2022-10-16T19:27:56;14.80;99.90
7248;DHT22;3665;51.034;13.642;2022-10-16T19:32:53;14.90;99.90
7248;DHT22;3665;51.034;13.642;2022-10-16T19:38:09;14.90;99.90
7248;DHT22;3665;51.034;13.642;2022-10-16T19:42:53;15.00;99.90
7248;DHT22;3665;51.034;13.642;2022-10-16T19:53:55;15.30;99.90
7248;DHT22;3665;51.034;13.642;2022-10-16T19:58:55;15.30;99.90
7248;DHT22;3665;51.034;13.642;2022-10-16T20:03:42;15.30;99.90
7248;DHT22;3665;51.034;13.642;2022-10-16T20:14:43;15.30;99.90
7248;DHT22;3665;51.034;13.642;2022-10-16T20:25:36;15.30;99.90
7248;DHT22;3665;51.034;13.642;2022-10-16T20:31:25;15.40;99.90
7248;DHT22;3665;51.034;13.642;2022-10-16T20:36:39;15.40;99.90
7248;DHT22;3665;51.034;13.642;2022-10-16T20:42:54;15.40;99.90
7248;DHT22;3665;51.034;13.642;2022-10-16T20:47:47;15.30;99.90
7248;DHT22;3665;51.034;13.642;2022-10-16T20:52:49;15.30;99.90
7248;DHT22;3665;51.034;13.642;2022-10-16T20:57:38;15.20;99.90
7248;DHT22;3665;51.034;13.642;2022-10-16T21:02:53;15.10;99.90
7248;DHT22;3665;51.034;13.642;2022-10-16T21:07:43;14.90;99.90
7248;DHT22;3665;51.034;13.642;2022-10-16T21:13:03;14.60;99.90
7248;DHT22;3665;51.034;13.642;2022-10-16T21:18:08;14.30;99.90
7248;DHT22;3665;51.034;13.642;2022-10-16T21:23:10;14.30;99.90
7248;DHT22;3665;51.034;13.642;2022-10-16T21:27:59;14.20;99.90
7248;DHT22;3665;51.034;13.642;2022-10-16T21:32:46;14.00;99.90
7248;DHT22;3665;51.034;13.642;2022-10-16T21:37:35;13.90;99.90
7248;DHT22;3665;51.034;13.642;2022-10-16T21:42:25;13.80;99.90
7248;DHT22;3665;51.034;13.642;2022-10-16T21:47:09;13.80;99.90
7248;DHT22;3665;51.034;13.642;2022-10-16T21:51:57;13.80;99.90
7248;DHT22;3665;51.034;13.642;2022-10-16T21:56:51;13.80;99.90
7248;DHT22;3665;51.034;13.642;2022-10-16T22:02:04;13.70;99.90
7248;DHT22;3665;51.034;13.642;2022-10-16T22:12:48;13.70;99.90
7248;DHT22;3665;51.034;13.642;2022-10-16T22:23:48;14.00;99.90
7248;DHT22;3665;51.034;13.642;2022-10-16T22:28:44;14.10;99.90
7248;DHT22;3665;51.034;13.642;2022-10-16T22:33:37;14.20;99.90
7248;DHT22;3665;51.034;13.642;2022-10-16T22:38:41;14.30;99.90
7248;DHT22;3665;51.034;13.642;2022-10-16T22:43:26;14.10;99.90
7248;DHT22;3665;51.034;13.642;2022-10-16T22:48:14;14.10;99.90
7248;DHT22;3665;51.034;13.642;2022-10-16T22:53:00;14.10;99.90
7248;DHT22;3665;51.034;13.642;2022-10-16T22:57:54;14.10;99.90
7248;DHT22;3665;51.034;13.642;2022-10-16T23:02:38;14.20;99.90
7248;DHT22;3665;51.034;13.642;2022-10-16T23:07:31;14.30;99.90
7248;DHT22;3665;51.034;13.642;2022-10-16T23:17:48;14.50;99.90
7248;DHT22;3665;51.034;13.642;2022-10-16T23:22:46;14.60;99.90
7248;DHT22;3665;51.034;13.642;2022-10-16T23:27:45;14.50;99.90
7248;DHT22;3665;51.034;13.642;2022-10-16T23:37:56;14.60;99.90
7248;DHT22;3665;51.034;13.642;2022-10-16T23:43:00;14.50;99.90
7248;DHT22;3665;51.034;13.642;2022-10-16T23:48:16;14.50;99.90
7248;DHT22;3665;51.034;13.642;2022-10-16T23:54:24;14.50;99.90
